sensor_id;sensor_type;location;lat;lon;timestamp;pressure;altitude;pressure_sealevel;temperature;humidity
59190;BME280;50749;51.636;4.948;2023-04-06T00:00:56;101836.69;;;17.75;45.67
59190;BME280;50749;51.636;4.948;2023-04-06T00:03:22;101854.09;;;17.76;45.70
59190;BME280;50749;51.636;4.948;2023-04-06T00:05:48;101848.88;;;17.74;45.71
59190;BME280;50749;51.636;4.948;2023-04-06T00:08:14;101850.50;;;17.75;45.62
59190;BME280;50749;51.636;4.948;2023-04-06T00:10:40;101830.66;;;17.73;45.88
59190;BME280;50749;51.636;4.948;2023-04-06T00:13:06;101841.72;;;17.73;45.46
59190;BME280;50749;51.636;4.948;2023-04-06T00:15:33;101832.94;;;17.71;45.67
59190;BME280;50749;51.636;4.948;2023-04-06T00:17:59;101827.41;;;17.71;45.63
59190;BME280;50749;51.636;4.948;2023-04-06T00:20:25;101819.91;;;17.72;45.54
59190;BME280;50749;51.636;4.948;2023-04-06T00:22:51;101822.22;;;17.70;45.09
59190;BME280;50749;51.636;4.948;2023-04-06T00:25:17;101823.03;;;17.70;45.87
59190;BME280;50749;51.636;4.948;2023-04-06T00:27:43;101818.66;;;17.69;45.37
59190;BME280;50749;51.636;4.948;2023-04-06T00:30:09;101822.53;;;17.68;45.26
59190;BME280;50749;51.636;4.948;2023-04-06T00:32:35;101811.47;;;17.68;45.42
59190;BME280;50749;51.636;4.948;2023-04-06T00:35:05;101805.47;;;17.66;45.59
59190;BME280;50749;51.636;4.948;2023-04-06T00:37:31;101804.34;;;17.67;45.57
59190;BME280;50749;51.636;4.948;2023-04-06T00:39:57;101806.59;;;17.65;45.38
59190;BME280;50749;51.636;4.948;2023-04-06T00:42:24;101805.81;;;17.64;45.43
59190;BME280;50749;51.636;4.948;2023-04-06T00:44:54;101804.69;;;17.66;45.00
59190;BME280;50749;51.636;4.948;2023-04-06T00:47:21;101802.25;;;17.64;45.27
59190;BME280;50749;51.636;4.948;2023-04-06T00:49:47;101797.50;;;17.64;45.45
59190;BME280;50749;51.636;4.948;2023-04-06T00:52:13;101797.03;;;17.62;45.52
59190;BME280;50749;51.636;4.948;2023-04-06T00:54:40;101792.31;;;17.63;44.48
59190;BME280;50749;51.636;4.948;2023-04-06T00:57:06;101790.72;;;17.62;44.96
59190;BME280;50749;51.636;4.948;2023-04-06T00:59:31;101795.41;;;17.61;45.15
59190;BME280;50749;51.636;4.948;2023-04-06T01:01:57;101789.06;;;17.61;45.21
59190;BME280;50749;51.636;4.948;2023-04-06T01:04:23;101785.50;;;17.60;45.23
59190;BME280;50749;51.636;4.948;2023-04-06T01:06:50;101790.72;;;17.62;45.10
59190;BME280;50749;51.636;4.948;2023-04-06T01:09:16;101778.03;;;17.61;45.29
59190;BME280;50749;51.636;4.948;2023-04-06T01:11:43;101782.75;;;17.60;44.93
59190;BME280;50749;51.636;4.948;2023-04-06T01:14:09;101777.22;;;17.60;44.99
59190;BME280;50749;51.636;4.948;2023-04-06T01:16:36;101769.25;;;17.59;45.03
59190;BME280;50749;51.636;4.948;2023-04-06T01:19:10;101772.81;;;17.59;45.09
59190;BME280;50749;51.636;4.948;2023-04-06T01:21:39;101764.53;;;17.59;45.12
59190;BME280;50749;51.636;4.948;2023-04-06T01:24:06;101776.72;;;17.58;45.19
59190;BME280;50749;51.636;4.948;2023-04-06T01:26:32;101767.63;;;17.58;45.04
59190;BME280;50749;51.636;4.948;2023-04-06T01:28:59;101764.84;;;17.58;45.24
59190;BME280;50749;51.636;4.948;2023-04-06T01:31:25;101754.97;;;17.57;45.14
59190;BME280;50749;51.636;4.948;2023-04-06T01:33:52;101758.84;;;17.56;45.22
59190;BME280;50749;51.636;4.948;2023-04-06T01:36:18;101758.06;;;17.55;45.38
59190;BME280;50749;51.636;4.948;2023-04-06T01:38:44;101756.09;;;17.56;45.36
59190;BME280;50749;51.636;4.948;2023-04-06T01:41:10;101759.97;;;17.55;45.43
59190;BME280;50749;51.636;4.948;2023-04-06T01:43:36;101750.88;;;17.54;44.88
59190;BME280;50749;51.636;4.948;2023-04-06T01:46:02;101745.34;;;17.54;45.46
59190;BME280;50749;51.636;4.948;2023-04-06T01:48:27;101738.19;;;17.53;45.23
59190;BME280;50749;51.636;4.948;2023-04-06T01:50:54;101737.41;;;17.53;44.98
59190;BME280;50749;51.636;4.948;2023-04-06T01:53:20;101733.03;;;17.52;44.79
59190;BME280;50749;51.636;4.948;2023-04-06T01:55:46;101737.72;;;17.51;44.78
59190;BME280;50749;51.636;4.948;2023-04-06T01:58:12;101735.78;;;17.52;45.25
59190;BME280;50749;51.636;4.948;2023-04-06T02:00:39;101723.91;;;17.51;45.21
59190;BME280;50749;51.636;4.948;2023-04-06T02:03:06;101718.38;;;17.51;44.57
59190;BME280;50749;51.636;4.948;2023-04-06T02:05:33;101717.56;;;17.51;44.74
59190;BME280;50749;51.636;4.948;2023-04-06T02:08:06;101719.53;;;17.50;45.09
59190;BME280;50749;51.636;4.948;2023-04-06T02:10:33;101719.88;;;17.49;45.00
59190;BME280;50749;51.636;4.948;2023-04-06T02:12:59;101719.88;;;17.49;44.82
59190;BME280;50749;51.636;4.948;2023-04-06T02:15:25;101716.28;;;17.48;44.82
59190;BME280;50749;51.636;4.948;2023-04-06T02:17:51;101710.41;;;17.50;45.11
59190;BME280;50749;51.636;4.948;2023-04-06T02:20:17;101709.94;;;17.48;44.94
59190;BME280;50749;51.636;4.948;2023-04-06T02:22:43;101707.19;;;17.48;44.97
59190;BME280;50749;51.636;4.948;2023-04-06T02:25:09;101701.66;;;17.48;45.23
59190;BME280;50749;51.636;4.948;2023-04-06T02:27:36;101706.38;;;17.47;45.17
59190;BME280;50749;51.636;4.948;2023-04-06T02:30:03;101700.84;;;17.47;45.15
59190;BME280;50749;51.636;4.948;2023-04-06T02:32:29;101700.03;;;17.46;45.15
59190;BME280;50749;51.636;4.948;2023-04-06T02:34:55;101697.25;;;17.46;45.01
59190;BME280;50749;51.636;4.948;2023-04-06T02:37:21;101700.03;;;17.46;44.83
59190;BME280;50749;51.636;4.948;2023-04-06T02:39:48;101687.38;;;17.45;45.48
59190;BME280;50749;51.636;4.948;2023-04-06T02:42:14;101687.38;;;17.45;44.84
59190;BME280;50749;51.636;4.948;2023-04-06T02:44:41;101681.84;;;17.45;45.05
59190;BME280;50749;51.636;4.948;2023-04-06T02:47:07;101682.97;;;17.44;45.07
59190;BME280;50749;51.636;4.948;2023-04-06T02:49:33;101684.94;;;17.44;45.38
59190;BME280;50749;51.636;4.948;2023-04-06T02:51:59;101684.13;;;17.43;45.05
59190;BME280;50749;51.636;4.948;2023-04-06T02:54:25;101686.56;;;17.45;45.23
59190;BME280;50749;51.636;4.948;2023-04-06T02:56:51;101683.28;;;17.43;44.93
59190;BME280;50749;51.636;4.948;2023-04-06T02:59:17;101682.97;;;17.44;44.70
59190;BME280;50749;51.636;4.948;2023-04-06T03:01:43;101673.06;;;17.43;44.67
59190;BME280;50749;51.636;4.948;2023-04-06T03:04:09;101671.44;;;17.42;44.88
59190;BME280;50749;51.636;4.948;2023-04-06T03:06:34;101675.84;;;17.43;44.42
59190;BME280;50749;51.636;4.948;2023-04-06T03:09:00;101667.53;;;17.43;44.56
59190;BME280;50749;51.636;4.948;2023-04-06T03:11:26;101669.47;;;17.43;44.69
59190;BME280;50749;51.636;4.948;2023-04-06T03:13:52;101656.47;;;17.43;44.76
59190;BME280;50749;51.636;4.948;2023-04-06T03:16:18;101664.28;;;17.41;44.73
59190;BME280;50749;51.636;4.948;2023-04-06T03:18:44;101661.50;;;17.41;45.40
59190;BME280;50749;51.636;4.948;2023-04-06T03:21:15;101665.13;;;17.42;44.84
59190;BME280;50749;51.636;4.948;2023-04-06T03:23:42;101661.19;;;17.43;45.57
59190;BME280;50749;51.636;4.948;2023-04-06T03:26:08;101663.63;;;17.44;45.43
59190;BME280;50749;51.636;4.948;2023-04-06T03:28:34;101655.47;;;17.48;45.12
59190;BME280;50749;51.636;4.948;2023-04-06T03:31:00;101653.66;;;17.52;45.01
59190;BME280;50749;51.636;4.948;2023-04-06T03:33:26;101654.25;;;17.58;44.68
59190;BME280;50749;51.636;4.948;2023-04-06T03:35:54;101650.50;;;17.62;44.35
59190;BME280;50749;51.636;4.948;2023-04-06T03:38:21;101645.56;;;17.68;44.31
59190;BME280;50749;51.636;4.948;2023-04-06T03:40:46;101649.28;;;17.72;44.42
59190;BME280;50749;51.636;4.948;2023-04-06T03:43:12;101648.63;;;17.75;44.51
59190;BME280;50749;51.636;4.948;2023-04-06T03:45:38;101646.00;;;17.79;44.39
59190;BME280;50749;51.636;4.948;2023-04-06T03:48:04;101650.47;;;17.83;44.42
59190;BME280;50749;51.636;4.948;2023-04-06T03:50:30;101647.38;;;17.85;44.63
59190;BME280;50749;51.636;4.948;2023-04-06T03:52:56;101643.19;;;17.88;44.54
59190;BME280;50749;51.636;4.948;2023-04-06T03:55:22;101636.13;;;17.90;44.63
59190;BME280;50749;51.636;4.948;2023-04-06T03:57:48;101633.88;;;17.92;44.40
59190;BME280;50749;51.636;4.948;2023-04-06T04:00:14;101628.00;;;17.94;44.68
59190;BME280;50749;51.636;4.948;2023-04-06T04:02:41;101636.75;;;17.96;44.46
59190;BME280;50749;51.636;4.948;2023-04-06T04:05:06;101636.09;;;17.99;44.54
59190;BME280;50749;51.636;4.948;2023-04-06T04:07:33;101632.16;;;18.00;44.63
59190;BME280;50749;51.636;4.948;2023-04-06T04:09:58;101632.63;;;18.02;44.69
59190;BME280;50749;51.636;4.948;2023-04-06T04:12:24;101630.34;;;18.04;44.63
59190;BME280;50749;51.636;4.948;2023-04-06T04:14:50;101630.81;;;18.06;44.83
59190;BME280;50749;51.636;4.948;2023-04-06T04:17:16;101621.38;;;18.07;44.49
59190;BME280;50749;51.636;4.948;2023-04-06T04:19:41;101628.50;;;18.08;44.51
59190;BME280;50749;51.636;4.948;2023-04-06T04:22:07;101628.97;;;18.10;44.53
59190;BME280;50749;51.636;4.948;2023-04-06T04:24:33;101628.28;;;18.13;44.13
59190;BME280;50749;51.636;4.948;2023-04-06T04:26:59;101632.81;;;18.18;44.43
59190;BME280;50749;51.636;4.948;2023-04-06T04:29:26;101631.78;;;18.23;44.46
59190;BME280;50749;51.636;4.948;2023-04-06T04:31:52;101631.91;;;18.26;44.74
59190;BME280;50749;51.636;4.948;2023-04-06T04:34:18;101629.63;;;18.28;44.69
59190;BME280;50749;51.636;4.948;2023-04-06T04:36:49;101629.41;;;18.33;44.89
59190;BME280;50749;51.636;4.948;2023-04-06T04:39:15;101630.69;;;18.36;45.14
59190;BME280;50749;51.636;4.948;2023-04-06T04:41:41;101630.81;;;18.40;45.13
59190;BME280;50749;51.636;4.948;2023-04-06T04:44:07;101627.69;;;18.41;44.76
59190;BME280;50749;51.636;4.948;2023-04-06T04:46:33;101630.59;;;18.45;45.04
59190;BME280;50749;51.636;4.948;2023-04-06T04:48:58;101627.47;;;18.46;44.90
59190;BME280;50749;51.636;4.948;2023-04-06T04:51:24;101627.94;;;18.48;44.88
59190;BME280;50749;51.636;4.948;2023-04-06T04:53:50;101625.97;;;18.49;45.03
59190;BME280;50749;51.636;4.948;2023-04-06T04:56:16;101625.63;;;18.50;45.45
59190;BME280;50749;51.636;4.948;2023-04-06T04:58:42;101630.38;;;18.50;45.30
59190;BME280;50749;51.636;4.948;2023-04-06T05:01:08;101620.09;;;18.50;45.11
59190;BME280;50749;51.636;4.948;2023-04-06T05:03:34;101627.59;;;18.50;44.80
59190;BME280;50749;51.636;4.948;2023-04-06T05:06:01;101630.38;;;18.50;45.62
59190;BME280;50749;51.636;4.948;2023-04-06T05:08:27;101624.81;;;18.50;45.23
59190;BME280;50749;51.636;4.948;2023-04-06T05:10:53;101632.00;;;18.51;45.32
59190;BME280;50749;51.636;4.948;2023-04-06T05:13:19;101634.88;;;18.54;46.20
59190;BME280;50749;51.636;4.948;2023-04-06T05:15:45;101626.56;;;18.54;46.53
59190;BME280;50749;51.636;4.948;2023-04-06T05:18:12;101627.38;;;18.55;45.64
59190;BME280;50749;51.636;4.948;2023-04-06T05:20:39;101631.41;;;18.57;46.26
59190;BME280;50749;51.636;4.948;2023-04-06T05:23:04;101628.19;;;18.55;46.35
59190;BME280;50749;51.636;4.948;2023-04-06T05:25:31;101632.78;;;18.51;46.16
59190;BME280;50749;51.636;4.948;2023-04-06T05:27:57;101629.69;;;18.53;45.84
59190;BME280;50749;51.636;4.948;2023-04-06T05:30:23;101629.69;;;18.53;46.12
59190;BME280;50749;51.636;4.948;2023-04-06T05:32:50;101625.28;;;18.52;46.19
59190;BME280;50749;51.636;4.948;2023-04-06T05:35:16;101631.63;;;18.52;45.26
59190;BME280;50749;51.636;4.948;2023-04-06T05:37:43;101628.84;;;18.52;45.50
59190;BME280;50749;51.636;4.948;2023-04-06T05:40:10;101623.31;;;18.52;45.39
59190;BME280;50749;51.636;4.948;2023-04-06T05:42:40;101632.13;;;18.54;45.84
59190;BME280;50749;51.636;4.948;2023-04-06T05:45:07;101627.38;;;18.55;46.21
59190;BME280;50749;51.636;4.948;2023-04-06T05:47:32;101622.97;;;18.54;45.51
59190;BME280;50749;51.636;4.948;2023-04-06T05:49:59;101622.63;;;18.55;45.43
59190;BME280;50749;51.636;4.948;2023-04-06T05:52:24;101630.16;;;18.55;45.98
59190;BME280;50749;51.636;4.948;2023-04-06T05:54:51;101628.19;;;18.55;45.63
59190;BME280;50749;51.636;4.948;2023-04-06T05:57:17;101631.28;;;18.54;45.31
59190;BME280;50749;51.636;4.948;2023-04-06T05:59:43;101623.31;;;18.52;45.75
59190;BME280;50749;51.636;4.948;2023-04-06T06:02:09;101629.69;;;18.53;45.73
59190;BME280;50749;51.636;4.948;2023-04-06T06:04:36;101617.78;;;18.52;45.70
59190;BME280;50749;51.636;4.948;2023-04-06T06:07:02;101612.25;;;18.52;45.42
59190;BME280;50749;51.636;4.948;2023-04-06T06:09:30;101623.31;;;18.52;45.80
59190;BME280;50749;51.636;4.948;2023-04-06T06:11:56;101624.50;;;18.51;45.40
59190;BME280;50749;51.636;4.948;2023-04-06T06:14:22;101622.97;;;18.54;46.27
59190;BME280;50749;51.636;4.948;2023-04-06T06:16:48;101623.31;;;18.52;46.39
59190;BME280;50749;51.636;4.948;2023-04-06T06:19:14;101622.06;;;18.50;45.87
59190;BME280;50749;51.636;4.948;2023-04-06T06:21:40;101618.50;;;18.49;45.53
59190;BME280;50749;51.636;4.948;2023-04-06T06:24:08;101624.03;;;18.49;46.12
59190;BME280;50749;51.636;4.948;2023-04-06T06:26:33;101617.66;;;18.49;45.83
59190;BME280;50749;51.636;4.948;2023-04-06T06:29:03;101620.78;;;18.47;45.83
59190;BME280;50749;51.636;4.948;2023-04-06T06:31:31;101616.06;;;18.48;46.17
59190;BME280;50749;51.636;4.948;2023-04-06T06:33:57;101613.63;;;18.46;46.33
59190;BME280;50749;51.636;4.948;2023-04-06T06:36:25;101619.16;;;18.46;46.92
59190;BME280;50749;51.636;4.948;2023-04-06T06:38:51;101625.06;;;18.45;46.54
59190;BME280;50749;51.636;4.948;2023-04-06T06:41:17;101626.19;;;18.44;46.62
59190;BME280;50749;51.636;4.948;2023-04-06T06:43:43;101626.19;;;18.44;46.48
59190;BME280;50749;51.636;4.948;2023-04-06T06:46:09;101622.16;;;18.41;46.26
59190;BME280;50749;51.636;4.948;2023-04-06T06:48:35;101617.75;;;18.40;46.72
59190;BME280;50749;51.636;4.948;2023-04-06T06:51:03;101623.63;;;18.38;46.69
59190;BME280;50749;51.636;4.948;2023-04-06T06:53:30;101616.50;;;18.37;46.55
59190;BME280;50749;51.636;4.948;2023-04-06T06:55:56;101612.91;;;18.37;46.53
59190;BME280;50749;51.636;4.948;2023-04-06T06:58:22;101619.63;;;18.36;46.91
59190;BME280;50749;51.636;4.948;2023-04-06T07:00:48;101615.22;;;18.35;46.61
59190;BME280;50749;51.636;4.948;2023-04-06T07:03:14;101614.75;;;18.33;46.58
59190;BME280;50749;51.636;4.948;2023-04-06T07:05:45;101622.09;;;18.29;46.82
59190;BME280;50749;51.636;4.948;2023-04-06T07:08:16;101609.91;;;18.30;46.80
59190;BME280;50749;51.636;4.948;2023-04-06T07:10:43;101620.97;;;18.30;46.42
59190;BME280;50749;51.636;4.948;2023-04-06T07:13:09;101611.53;;;18.31;45.68
59190;BME280;50749;51.636;4.948;2023-04-06T07:15:35;101615.78;;;18.28;46.15
59190;BME280;50749;51.636;4.948;2023-04-06T07:18:01;101613.34;;;18.27;45.89
59190;BME280;50749;51.636;4.948;2023-04-06T07:20:26;101612.88;;;18.25;46.32
59190;BME280;50749;51.636;4.948;2023-04-06T07:22:53;101608.50;;;18.24;46.27
59190;BME280;50749;51.636;4.948;2023-04-06T07:25:19;101620.72;;;18.23;46.18
59190;BME280;50749;51.636;4.948;2023-04-06T07:27:45;101612.44;;;18.23;46.29
59190;BME280;50749;51.636;4.948;2023-04-06T07:30:11;101613.56;;;18.22;46.30
59190;BME280;50749;51.636;4.948;2023-04-06T07:32:37;101607.56;;;18.19;46.24
59190;BME280;50749;51.636;4.948;2023-04-06T07:35:03;101611.47;;;18.18;46.17
59190;BME280;50749;51.636;4.948;2023-04-06T07:37:29;101604.00;;;18.19;46.23
59190;BME280;50749;51.636;4.948;2023-04-06T07:39:55;101605.25;;;18.22;46.23
59190;BME280;50749;51.636;4.948;2023-04-06T07:42:21;101608.03;;;18.22;46.25
59190;BME280;50749;51.636;4.948;2023-04-06T07:44:48;101609.16;;;18.20;46.65
59190;BME280;50749;51.636;4.948;2023-04-06T07:47:14;101605.59;;;18.20;46.63
59190;BME280;50749;51.636;4.948;2023-04-06T07:49:39;101605.13;;;18.18;46.73
59190;BME280;50749;51.636;4.948;2023-04-06T07:52:05;101608.69;;;18.18;46.53
59190;BME280;50749;51.636;4.948;2023-04-06T07:54:31;101606.63;;;18.15;46.65
59190;BME280;50749;51.636;4.948;2023-04-06T07:56:57;101609.38;;;18.15;46.68
59190;BME280;50749;51.636;4.948;2023-04-06T07:59:24;101613.31;;;18.14;46.63
59190;BME280;50749;51.636;4.948;2023-04-06T08:01:50;101620.44;;;18.15;47.08
59190;BME280;50749;51.636;4.948;2023-04-06T08:04:16;101617.69;;;18.15;46.82
59190;BME280;50749;51.636;4.948;2023-04-06T08:06:42;101614.13;;;18.15;47.02
59190;BME280;50749;51.636;4.948;2023-04-06T08:09:07;101614.56;;;18.17;46.99
59190;BME280;50749;51.636;4.948;2023-04-06T08:11:33;101610.66;;;18.18;47.00
59190;BME280;50749;51.636;4.948;2023-04-06T08:13:59;101608.59;;;18.15;47.34
59190;BME280;50749;51.636;4.948;2023-04-06T08:16:25;101611.34;;;18.15;47.31
59190;BME280;50749;51.636;4.948;2023-04-06T08:18:52;101610.56;;;18.14;46.98
59190;BME280;50749;51.636;4.948;2023-04-06T08:21:18;101619.66;;;18.15;46.97
59190;BME280;50749;51.636;4.948;2023-04-06T08:23:44;101618.03;;;18.14;47.01
59190;BME280;50749;51.636;4.948;2023-04-06T08:26:11;101622.75;;;18.13;47.32
59190;BME280;50749;51.636;4.948;2023-04-06T08:28:37;101623.94;;;18.12;47.15
59190;BME280;50749;51.636;4.948;2023-04-06T08:31:07;101621.16;;;18.12;46.93
59190;BME280;50749;51.636;4.948;2023-04-06T08:33:33;101625.88;;;18.12;47.07
59190;BME280;50749;51.636;4.948;2023-04-06T08:36:12;101625.88;;;18.12;47.01
59190;BME280;50749;51.636;4.948;2023-04-06T08:38:40;101625.88;;;18.12;46.81
59190;BME280;50749;51.636;4.948;2023-04-06T08:41:10;101625.06;;;18.11;47.16
59190;BME280;50749;51.636;4.948;2023-04-06T08:43:44;101624.25;;;18.11;46.97
59190;BME280;50749;51.636;4.948;2023-04-06T08:46:12;101621.50;;;18.11;47.41
59190;BME280;50749;51.636;4.948;2023-04-06T08:48:40;101622.28;;;18.11;47.13
59190;BME280;50749;51.636;4.948;2023-04-06T08:51:07;101619.53;;;18.11;47.46
59190;BME280;50749;51.636;4.948;2023-04-06T08:53:35;101622.28;;;18.11;47.52
59190;BME280;50749;51.636;4.948;2023-04-06T08:56:01;101612.38;;;18.10;47.49
59190;BME280;50749;51.636;4.948;2023-04-06T08:58:31;101618.72;;;18.11;45.49
59190;BME280;50749;51.636;4.948;2023-04-06T09:00:58;101615.47;;;18.09;46.44
59190;BME280;50749;51.636;4.948;2023-04-06T09:03:27;101614.66;;;18.08;46.94
59190;BME280;50749;51.636;4.948;2023-04-06T09:05:54;101613.88;;;18.08;46.80
59190;BME280;50749;51.636;4.948;2023-04-06T09:08:20;101617.09;;;18.10;46.98
59190;BME280;50749;51.636;4.948;2023-04-06T09:10:46;101614.66;;;18.08;47.50
59190;BME280;50749;51.636;4.948;2023-04-06T09:13:13;101615.34;;;18.05;47.55
59190;BME280;50749;51.636;4.948;2023-04-06T09:15:39;101607.38;;;18.04;46.79
59190;BME280;50749;51.636;4.948;2023-04-06T09:18:04;101610.97;;;18.04;46.95
59190;BME280;50749;51.636;4.948;2023-04-06T09:20:31;101601.38;;;18.01;47.07
59190;BME280;50749;51.636;4.948;2023-04-06T09:22:57;101607.25;;;18.00;47.13
59190;BME280;50749;51.636;4.948;2023-04-06T09:25:24;101607.25;;;18.00;47.45
59190;BME280;50749;51.636;4.948;2023-04-06T09:28:01;101597.03;;;18.00;46.99
59190;BME280;50749;51.636;4.948;2023-04-06T09:30:28;101606.13;;;18.01;47.08
59190;BME280;50749;51.636;4.948;2023-04-06T09:32:56;101603.34;;;18.01;47.36
59190;BME280;50749;51.636;4.948;2023-04-06T09:35:23;101602.19;;;18.02;47.91
59190;BME280;50749;51.636;4.948;2023-04-06T09:37:51;101604.16;;;18.01;47.41
59190;BME280;50749;51.636;4.948;2023-04-06T09:40:21;101598.28;;;18.03;47.38
59190;BME280;50749;51.636;4.948;2023-04-06T09:42:50;101597.94;;;18.05;47.60
59190;BME280;50749;51.636;4.948;2023-04-06T09:45:18;101596.81;;;18.06;47.30
59190;BME280;50749;51.636;4.948;2023-04-06T09:47:45;101594.38;;;18.04;47.52
59190;BME280;50749;51.636;4.948;2023-04-06T09:50:12;101593.22;;;18.05;48.00
59190;BME280;50749;51.636;4.948;2023-04-06T09:52:47;101597.59;;;18.06;47.89
59190;BME280;50749;51.636;4.948;2023-04-06T09:55:23;101588.50;;;18.06;47.60
59190;BME280;50749;51.636;4.948;2023-04-06T10:00:17;101589.31;;;18.06;47.94
59190;BME280;50749;51.636;4.948;2023-04-06T10:02:59;101591.72;;;18.08;48.03
59190;BME280;50749;51.636;4.948;2023-04-06T10:06:00;101598.06;;;18.08;48.03
59190;BME280;50749;51.636;4.948;2023-04-06T10:08:32;101597.28;;;18.08;48.56
59190;BME280;50749;51.636;4.948;2023-04-06T10:10:59;101600.84;;;18.08;48.17
59190;BME280;50749;51.636;4.948;2023-04-06T10:13:26;101598.88;;;18.09;48.26
59190;BME280;50749;51.636;4.948;2023-04-06T10:15:55;101591.72;;;18.08;48.06
59190;BME280;50749;51.636;4.948;2023-04-06T10:18:21;101589.78;;;18.08;48.03
59190;BME280;50749;51.636;4.948;2023-04-06T10:21:08;101597.28;;;18.08;47.90
59190;BME280;50749;51.636;4.948;2023-04-06T10:23:36;101581.81;;;18.07;48.19
59190;BME280;50749;51.636;4.948;2023-04-06T10:26:05;101590.94;;;18.07;48.28
59190;BME280;50749;51.636;4.948;2023-04-06T10:28:33;101589.31;;;18.06;48.67
59190;BME280;50749;51.636;4.948;2023-04-06T10:31:04;101591.72;;;18.08;48.61
59190;BME280;50749;51.636;4.948;2023-04-06T10:33:30;101585.41;;;18.07;48.52
59190;BME280;50749;51.636;4.948;2023-04-06T10:35:57;101587.00;;;18.08;48.63
59190;BME280;50749;51.636;4.948;2023-04-06T10:38:38;101585.41;;;18.07;48.66
59190;BME280;50749;51.636;4.948;2023-04-06T10:41:06;101583.09;;;18.09;47.68
59190;BME280;50749;51.636;4.948;2023-04-06T10:43:40;101582.63;;;18.07;48.33
59190;BME280;50749;51.636;4.948;2023-04-06T10:46:10;101576.59;;;18.05;48.27
59190;BME280;50749;51.636;4.948;2023-04-06T10:48:40;101582.97;;;18.06;48.64
59190;BME280;50749;51.636;4.948;2023-04-06T10:51:16;101570.41;;;18.08;48.30
59190;BME280;50749;51.636;4.948;2023-04-06T10:53:44;101581.47;;;18.08;48.55
59190;BME280;50749;51.636;4.948;2023-04-06T10:56:14;101568.81;;;18.07;48.47
59190;BME280;50749;51.636;4.948;2023-04-06T10:58:53;101560.84;;;18.06;48.52
59190;BME280;50749;51.636;4.948;2023-04-06T11:01:22;101554.13;;;18.07;48.56
59190;BME280;50749;51.636;4.948;2023-04-06T11:03:52;101555.31;;;18.06;48.27
59190;BME280;50749;51.636;4.948;2023-04-06T11:06:21;101557.25;;;18.05;48.06
59190;BME280;50749;51.636;4.948;2023-04-06T11:08:48;101548.94;;;18.05;48.53
59190;BME280;50749;51.636;4.948;2023-04-06T11:11:18;101552.53;;;18.06;48.42
59190;BME280;50749;51.636;4.948;2023-04-06T11:13:57;101551.38;;;18.07;48.45
59190;BME280;50749;51.636;4.948;2023-04-06T11:16:28;101554.97;;;18.07;48.24
59190;BME280;50749;51.636;4.948;2023-04-06T11:18:58;101550.56;;;18.06;48.17
59190;BME280;50749;51.636;4.948;2023-04-06T11:21:50;101537.88;;;18.05;48.19
59190;BME280;50749;51.636;4.948;2023-04-06T11:24:18;101543.41;;;18.05;48.24
59190;BME280;50749;51.636;4.948;2023-04-06T11:26:58;101541.81;;;18.04;48.11
59190;BME280;50749;51.636;4.948;2023-04-06T11:29:26;101539.84;;;18.05;48.61
59190;BME280;50749;51.636;4.948;2023-04-06T11:31:57;101529.13;;;18.03;48.76
59190;BME280;50749;51.636;4.948;2023-04-06T11:34:24;101529.91;;;18.04;48.56
59190;BME280;50749;51.636;4.948;2023-04-06T11:36:56;101527.47;;;18.02;48.51
59190;BME280;50749;51.636;4.948;2023-04-06T11:39:24;101516.41;;;18.02;48.73
59190;BME280;50749;51.636;4.948;2023-04-06T11:41:52;101519.19;;;18.02;48.72
59190;BME280;50749;51.636;4.948;2023-04-06T11:44:36;101520.34;;;18.01;48.45
59190;BME280;50749;51.636;4.948;2023-04-06T11:47:10;101515.97;;;18.00;48.45
59190;BME280;50749;51.636;4.948;2023-04-06T11:49:41;101515.97;;;18.00;48.65
59190;BME280;50749;51.636;4.948;2023-04-06T11:52:24;101511.59;;;17.99;48.57
59190;BME280;50749;51.636;4.948;2023-04-06T11:54:51;101504.09;;;17.99;48.40
59190;BME280;50749;51.636;4.948;2023-04-06T11:57:18;101506.06;;;17.99;48.36
59190;BME280;50749;51.636;4.948;2023-04-06T11:59:45;101504.91;;;18.00;48.50
59190;BME280;50749;51.636;4.948;2023-04-06T12:02:11;101505.22;;;17.98;48.37
59190;BME280;50749;51.636;4.948;2023-04-06T12:04:37;101509.16;;;17.97;48.84
59190;BME280;50749;51.636;4.948;2023-04-06T12:07:04;101505.13;;;17.95;48.35
59190;BME280;50749;51.636;4.948;2023-04-06T12:09:30;101499.59;;;17.95;48.64
59190;BME280;50749;51.636;4.948;2023-04-06T12:11:57;101503.16;;;17.95;48.76
59190;BME280;50749;51.636;4.948;2023-04-06T12:14:23;101510.31;;;17.96;48.43
59190;BME280;50749;51.636;4.948;2023-04-06T12:16:49;101504.31;;;17.94;48.44
59190;BME280;50749;51.636;4.948;2023-04-06T12:19:15;101502.34;;;17.95;48.24
59190;BME280;50749;51.636;4.948;2023-04-06T12:21:42;101499.91;;;17.93;48.34
59190;BME280;50749;51.636;4.948;2023-04-06T12:24:08;101502.69;;;17.93;48.95
59190;BME280;50749;51.636;4.948;2023-04-06T12:26:34;101500.25;;;17.92;48.55
59190;BME280;50749;51.636;4.948;2023-04-06T12:29:01;101501.88;;;17.93;48.84
59190;BME280;50749;51.636;4.948;2023-04-06T12:31:34;101494.72;;;17.92;48.74
59190;BME280;50749;51.636;4.948;2023-04-06T12:34:01;101491.97;;;17.92;48.79
59190;BME280;50749;51.636;4.948;2023-04-06T12:36:29;101493.13;;;17.91;49.13
59190;BME280;50749;51.636;4.948;2023-04-06T12:38:55;101489.19;;;17.92;48.78
59190;BME280;50749;51.636;4.948;2023-04-06T12:41:21;101483.66;;;17.92;48.96
59190;BME280;50749;51.636;4.948;2023-04-06T12:43:48;101486.44;;;17.92;48.92
59190;BME280;50749;51.636;4.948;2023-04-06T12:46:15;101482.06;;;17.91;49.01
59190;BME280;50749;51.636;4.948;2023-04-06T12:48:41;101475.72;;;17.90;48.76
59190;BME280;50749;51.636;4.948;2023-04-06T12:51:07;101481.25;;;17.90;49.12
59190;BME280;50749;51.636;4.948;2023-04-06T12:53:34;101474.91;;;17.90;48.79